Time;durP1;ratioP1;P1;durP2;ratioP2;P2;SDS_P1;SDS_P2;PMS_P1;PMS_P2;Temp;Humidity;BMP_temperature;BMP_pressure;BME280_temperature;BME280_humidity;BME280_pressure;Samples;Min_cycle;Max_cycle;Signal;HPM_P1;HPM_P2
2022/01/22 00:02:13;;;;;;;9.10;6.43;;;3.80;55.70;;;;;;20849;6748;122132;-85
2022/01/22 00:04:48;;;;;;;9.30;5.67;;;3.70;55.90;;;;;;20844;6747;117317;-88
2022/01/22 00:07:24;;;;;;;11.80;6.00;;;3.60;56.00;;;;;;20763;6747;117243;-85
2022/01/22 00:10:04;;;;;;;10.30;6.30;;;3.60;56.20;;;;;;20938;6733;117295;-84
2022/01/22 00:12:55;;;;;;;12.25;8.35;;;3.50;56.40;;;;;;20757;6724;333718;-85
2022/01/22 00:15:14;;;;;;;11.33;8.50;;;3.80;57.00;;;;;;20735;6781;305803;-83
2022/01/22 00:17:49;;;;;;;11.27;8.40;;;4.20;56.30;;;;;;20651;6724;307900;-83
2022/01/22 00:20:25;;;;;;;6.67;6.03;;;4.50;55.50;;;;;;20783;6769;120352;-85
2022/01/22 00:23:01;;;;;;;7.43;6.70;;;4.20;55.30;;;;;;20789;6769;116954;-83
2022/01/22 00:25:37;;;;;;;11.02;8.15;;;4.20;55.30;;;;;;20604;6768;342798;-85
2022/01/22 00:28:13;;;;;;;13.85;8.23;;;4.60;55.20;;;;;;20463;6768;302878;-83
2022/01/22 00:30:49;;;;;;;11.70;7.07;;;4.60;55.20;;;;;;20796;6769;117732;-83
2022/01/22 00:33:24;;;;;;;9.77;5.97;;;4.50;54.70;;;;;;20771;6770;117691;-83
2022/01/22 00:36:00;;;;;;;10.73;6.03;;;4.30;55.10;;;;;;20785;6769;116898;-85
2022/01/22 00:38:35;;;;;;;7.60;5.63;;;4.10;55.50;;;;;;20545;6840;121889;-84
2022/01/22 00:41:11;;;;;;;7.67;6.40;;;3.90;55.80;;;;;;20742;6785;117152;-84
2022/01/22 00:43:49;;;;;;;10.43;7.95;;;3.80;56.10;;;;;;20493;6795;309590;-85
2022/01/22 00:46:25;;;;;;;9.07;8.02;;;4.00;56.60;;;;;;20491;6795;301311;-80
2022/01/22 00:49:04;;;;;;;13.40;6.50;;;4.40;55.40;;;;;;20819;6766;121041;-81
2022/01/22 00:51:36;;;;;;;8.80;6.30;;;4.40;55.40;;;;;;20845;6766;117215;-84
2022/01/22 00:54:12;;;;;;;8.93;5.43;;;4.20;55.50;;;;;;20851;6766;117032;-85
2022/01/22 00:56:48;;;;;;;6.57;5.83;;;4.00;55.80;;;;;;20744;6755;118069;-84
2022/01/22 00:59:23;;;;;;;6.67;5.10;;;3.90;56.00;;;;;;20824;6757;115993;-84
2022/01/22 01:02:02;;;;;;;10.00;6.93;;;3.80;56.20;;;;;;20490;6783;316574;-84
2022/01/22 01:04:37;;;;;;;6.07;5.47;;;4.00;55.80;;;;;;20692;6786;117346;-84
2022/01/22 01:07:11;;;;;;;7.97;5.30;;;4.00;55.80;;;;;;20642;6800;116745;-83
2022/01/22 01:09:46;;;;;;;12.67;5.97;;;3.90;55.90;;;;;;20789;6764;116996;-84
2022/01/22 01:12:27;;;;;;;8.47;6.87;;;3.80;56.10;;;;;;20527;6775;306577;-84
2022/01/22 01:32:16;;;;;;;6.33;4.70;;;3.70;56.10;;;;;;19715;7121;121044;-84
2022/01/22 01:34:48;;;;;;;9.30;6.82;;;3.50;56.20;;;;;;19571;7087;351715;-84
2022/01/22 01:37:22;;;;;;;6.37;5.77;;;3.80;56.70;;;;;;20039;6878;123006;-85
2022/01/22 01:40:01;;;;;;;9.03;7.07;;;3.90;56.10;;;;;;20694;6735;306198;-84
2022/01/22 01:42:45;;;;;;;10.47;7.00;;;4.10;56.10;;;;;;20615;6735;323153;-84
2022/01/22 01:45:09;;;;;;;8.43;5.33;;;4.50;55.40;;;;;;20887;6792;122788;-85
2022/01/22 01:47:47;;;;;;;6.07;5.00;;;4.50;54.90;;;;;;20780;6736;116761;-85
2022/01/22 01:50:20;;;;;;;5.83;5.20;;;4.20;55.10;;;;;;20826;6753;116767;-84
2022/01/22 01:53:11;;;;;;;10.13;5.57;;;4.10;55.60;;;;;;20853;6749;117118;-91
2022/01/22 01:57:23;;;;;;;;;;;;;;;;;;;;;
2022/01/22 01:58:34;;;;;;;6.40;4.93;;;3.80;56.00;;;;;;20570;6866;122465;-83
2022/01/22 02:01:10;;;;;;;8.73;6.17;;;3.90;56.50;;;;;;20555;6768;311687;-82
2022/01/22 02:03:46;;;;;;;7.77;5.60;;;3.90;56.50;;;;;;20730;6785;117170;-83
2022/01/22 02:06:21;;;;;;;8.17;4.53;;;4.00;56.60;;;;;;20633;6815;119252;-83
2022/01/22 02:09:06;;;;;;;6.93;5.90;;;3.90;56.00;;;;;;20576;6779;308635;-82
2022/01/22 02:11:33;;;;;;;6.53;5.93;;;4.10;56.10;;;;;;20594;6768;300605;-84
2022/01/22 02:25:44;;;;;;;7.93;5.00;;;4.90;53.60;;;;;;20766;6763;122304;-83
2022/01/22 02:28:20;;;;;;;5.13;4.40;;;4.80;53.50;;;;;;20656;6781;120652;-86
2022/01/22 02:31:05;;;;;;;6.03;4.70;;;4.50;53.90;;;;;;20819;6767;120600;-83
2022/01/22 02:33:41;;;;;;;8.77;6.18;;;4.30;54.40;;;;;;20611;6767;326378;-85
2022/01/22 02:39:06;;;;;;;9.43;5.30;;;4.70;54.00;;;;;;20278;6811;117190;-85
2022/01/22 02:41:33;;;;;;;4.83;4.43;;;4.70;53.70;;;;;;20784;6781;116963;-83
2022/01/22 02:44:09;;;;;;;6.70;5.13;;;4.60;54.30;;;;;;20571;6781;307531;-84
2022/01/22 02:46:46;;;;;;;6.37;4.47;;;4.60;54.30;;;;;;20719;6768;117164;-83
2022/01/22 02:49:24;;;;;;;9.03;4.57;;;4.60;54.00;;;;;;20781;6773;117120;-85
2022/01/22 02:52:00;;;;;;;7.50;4.17;;;4.40;54.20;;;;;;20756;6779;117786;-84
2022/01/22 02:54:36;;;;;;;4.90;4.03;;;4.20;54.50;;;;;;20772;6778;117754;-84
2022/01/22 02:57:13;;;;;;;6.20;5.37;;;4.30;55.00;;;;;;20433;6848;308326;-84
2022/01/22 02:59:47;;;;;;;7.70;4.50;;;4.30;55.00;;;;;;20758;6775;117130;-84
2022/01/22 03:02:24;;;;;;;6.10;5.20;;;4.30;54.50;;;;;;20525;6772;307794;-83
2022/01/22 03:05:02;;;;;;;6.00;5.30;;;4.90;54.00;;;;;;20536;6784;307447;-83
2022/01/22 03:07:49;;;;;;;5.03;4.60;;;5.10;52.90;;;;;;20388;6800;309776;-84
2022/01/22 03:10:19;;;;;;;5.90;4.90;;;5.20;53.20;;;;;;20433;6803;309595;-83
2022/01/22 03:16:27;;;;;;;5.40;4.43;;;5.20;52.30;;;;;;19570;7124;290332;-83
2022/01/22 03:18:42;;;;;;;4.30;4.00;;;5.20;52.30;;;;;;20320;6894;117436;-83
2022/01/22 03:29:32;;;;;;;4.53;4.03;;;4.60;53.60;;;;;;20818;6760;116915;-82
2022/01/22 03:31:57;;;;;;;4.83;3.60;;;4.60;53.30;;;;;;20825;6760;116998;-84
2022/01/22 03:34:53;;;;;;;4.77;3.53;;;4.40;53.60;;;;;;20837;6745;118006;-82
2022/01/22 03:37:12;;;;;;;4.60;4.20;;;4.30;53.90;;;;;;20478;6807;280084;-84
2022/01/22 03:39:48;;;;;;;5.37;4.87;;;4.80;53.60;;;;;;20625;6748;307022;-84
2022/01/22 03:42:34;;;;;;;5.50;5.03;;;4.80;53.60;;;;;;20574;6743;328545;-85
2022/01/22 03:45:03;;;;;;;6.72;4.72;;;5.10;52.90;;;;;;20562;6767;307207;-84
2022/01/22 03:47:39;;;;;;;5.90;5.07;;;5.30;52.40;;;;;;20483;6781;340152;-82
2022/01/22 03:50:15;;;;;;;5.32;4.93;;;5.60;51.50;;;;;;20579;6765;343598;-83
2022/01/22 03:52:51;;;;;;;5.17;4.63;;;5.60;51.50;;;;;;20814;6750;117798;-85
2022/01/22 03:55:49;;;;;;;5.30;4.70;;;5.30;52.70;;;;;;20552;6773;281745;-82
2022/01/22 03:58:13;;;;;;;5.30;4.78;;;5.30;51.90;;;;;;20383;6774;293913;-86
2022/01/22 04:00:52;;;;;;;4.70;4.20;;;5.50;51.50;;;;;;20697;6786;117403;-84
2022/01/22 04:03:35;;;;;;;4.70;4.30;;;5.30;51.50;;;;;;20531;6776;338288;-83
2022/01/22 04:08:59;;;;;;;4.47;3.90;;;5.50;51.80;;;;;;20783;6765;117859;-85
2022/01/22 04:11:35;;;;;;;4.57;3.60;;;5.20;51.60;;;;;;20722;6781;118044;-85
2022/01/22 04:14:14;;;;;;;4.27;3.60;;;4.90;52.20;;;;;;20726;6786;117377;-84
2022/01/22 04:17:01;;;;;;;5.27;4.57;;;4.70;52.80;;;;;;20530;6780;342587;-84
2022/01/22 04:25:19;;;;;;;3.77;3.43;;;4.50;53.10;;;;;;20852;6760;117615;-84
2022/01/22 04:27:51;;;;;;;3.40;3.20;;;4.30;53.90;;;;;;20716;6760;117937;-83
2022/01/22 04:30:25;;;;;;;3.70;3.40;;;4.10;53.80;;;;;;20743;6780;127507;-85
2022/01/22 04:33:04;;;;;;;4.80;3.27;;;4.00;54.00;;;;;;20755;6795;117413;-84
2022/01/22 04:35:36;;;;;;;4.20;3.50;;;3.90;54.20;;;;;;20757;6780;118199;-85
2022/01/22 04:38:11;;;;;;;4.63;4.20;;;3.90;54.40;;;;;;20344;6780;311615;-83
2022/01/22 04:40:47;;;;;;;4.63;4.30;;;4.10;54.70;;;;;;20470;6796;278747;-81
2022/01/22 04:43:23;;;;;;;3.70;3.40;;;4.50;54.70;;;;;;20779;6772;120995;-83
2022/01/22 04:46:13;;;;;;;4.70;4.30;;;4.60;53.70;;;;;;20583;6767;278241;-83
2022/01/22 04:48:51;;;;;;;4.27;3.87;;;4.70;53.30;;;;;;20773;6765;119153;-82
2022/01/22 04:57:08;;;;;;;4.63;3.43;;;4.30;53.90;;;;;;20718;6782;118092;-81
2022/01/22 04:59:43;;;;;;;3.43;3.20;;;4.10;54.10;;;;;;20877;6765;116070;-82
2022/01/22 05:02:19;;;;;;;3.80;3.50;;;4.00;54.30;;;;;;20839;6759;117774;-83
2022/01/22 05:04:55;;;;;;;5.50;4.43;;;4.00;54.60;;;;;;20668;6758;305847;-83
2022/01/22 05:07:30;;;;;;;4.60;4.20;;;4.20;54.90;;;;;;20568;6758;294313;-82
2022/01/22 05:10:06;;;;;;;4.00;3.63;;;4.60;54.30;;;;;;20845;6758;116935;-84
2022/01/22 05:12:42;;;;;;;4.67;3.40;;;4.50;53.90;;;;;;20795;6777;118306;-83
2022/01/22 05:15:17;;;;;;;4.80;4.33;;;4.50;53.80;;;;;;21166;6502;297421;-83
2022/01/22 05:17:45;;;;;;;4.62;4.32;;;5.00;53.40;;;;;;20631;6767;306560;-83
2022/01/22 05:20:24;;;;;;;4.40;3.90;;;4.90;52.90;;;;;;20686;6849;116254;-80
2022/01/22 05:22:58;;;;;;;4.90;4.47;;;4.90;52.90;;;;;;20463;6825;277533;-83
2022/01/22 05:25:25;;;;;;;5.40;4.90;;;5.00;53.10;;;;;;20556;6825;279598;-83
2022/01/22 05:38:21;;;;;;;4.73;4.33;;;5.10;52.10;;;;;;20706;6842;117256;-86
2022/01/22 05:40:48;;;;;;;6.35;5.55;;;4.70;52.50;;;;;;20494;6842;308533;-86
2022/01/22 05:43:14;;;;;;;5.30;4.90;;;4.80;53.10;;;;;;20721;6843;117412;-84
2022/01/22 05:45:40;;;;;;;4.77;4.47;;;4.80;53.00;;;;;;20719;6843;117051;-83
2022/01/22 05:48:06;;;;;;;5.80;4.83;;;4.50;53.50;;;;;;20715;6843;117409;-84
2022/01/22 05:50:37;;;;;;;6.37;5.77;;;4.50;53.50;;;;;;20486;6843;278127;-84
2022/01/22 05:53:05;;;;;;;5.87;5.30;;;4.60;53.40;;;;;;20701;6843;117568;-84
2022/01/22 05:59:35;;;;;;;6.97;6.30;;;4.60;53.40;;;;;;20489;6840;307824;-84
2022/01/22 06:00:40;;;;;;;5.40;4.90;;;4.80;53.40;;;;;;20704;6840;117349;-84
2022/01/22 06:03:06;;;;;;;6.03;4.93;;;4.60;53.60;;;;;;20705;6850;118046;-81
2022/01/22 06:05:32;;;;;;;5.70;5.10;;;4.40;53.80;;;;;;20730;6840;120604;-83
2022/01/22 06:07:57;;;;;;;6.07;5.30;;;4.30;54.10;;;;;;20781;6825;116967;-83
2022/01/22 06:10:28;;;;;;;7.12;6.43;;;4.20;54.30;;;;;;20528;6843;290949;-85
2022/01/22 06:15:17;;;;;;;7.00;6.30;;;4.70;54.40;;;;;;20779;6840;116696;-83
2022/01/22 06:17:42;;;;;;;6.20;5.57;;;4.80;54.00;;;;;;20781;6840;117087;-82
2022/01/22 06:20:08;;;;;;;7.80;7.10;;;4.60;54.10;;;;;;20612;6825;307240;-82
2022/01/22 06:22:34;;;;;;;8.38;7.62;;;5.00;54.60;;;;;;20537;6825;314908;-80
2022/01/22 06:25:00;;;;;;;8.57;7.77;;;5.00;53.90;;;;;;20497;6841;310752;-85
2022/01/22 06:27:27;;;;;;;7.90;6.50;;;5.20;52.90;;;;;;20770;6825;116856;-83
2022/01/22 06:29:54;;;;;;;7.00;6.30;;;5.20;52.90;;;;;;20722;6842;117385;-80
2022/01/22 06:32:21;;;;;;;7.57;6.67;;;4.90;53.20;;;;;;20754;6825;117095;-81
2022/01/22 06:34:47;;;;;;;8.67;6.13;;;4.70;53.70;;;;;;20716;6840;118226;-82
2022/01/22 06:37:12;;;;;;;6.93;6.33;;;4.50;54.10;;;;;;20792;6825;116374;-82
2022/01/22 06:41:44;;;;;;;6.73;6.17;;;4.30;54.40;;;;;;20743;6840;117208;-82
2022/01/22 06:42:03;;;;;;;10.53;8.47;;;4.20;54.70;;;;;;20501;6825;313721;-88
2022/01/22 06:44:34;;;;;;;7.57;6.87;;;4.40;55.50;;;;;;20747;6825;117464;-85
2022/01/22 06:46:55;;;;;;;8.80;7.20;;;4.40;54.70;;;;;;20743;6829;121054;-82
2022/01/22 06:49:20;;;;;;;7.70;6.93;;;4.40;54.80;;;;;;20779;6829;122157;-85
2022/01/22 06:51:46;;;;;;;9.77;8.27;;;4.20;55.00;;;;;;20575;6825;309017;-86
2022/01/22 06:54:12;;;;;;;9.63;8.63;;;4.40;55.50;;;;;;20517;6840;337967;-82
2022/01/22 06:56:38;;;;;;;10.00;8.05;;;4.80;55.00;;;;;;20755;6824;117945;-87
2022/01/22 06:59:06;;;;;;;9.50;8.50;;;4.80;54.50;;;;;;20545;6824;341715;-88
2022/01/22 07:01:29;;;;;;;9.07;8.17;;;4.90;54.60;;;;;;20735;6839;117573;-88
2022/01/22 07:03:55;;;;;;;10.00;7.57;;;4.90;54.30;;;;;;20845;6825;116976;-88
2022/01/22 07:06:22;;;;;;;8.20;7.50;;;4.70;54.50;;;;;;20748;6839;117103;-83
2022/01/22 07:08:47;;;;;;;9.93;8.10;;;4.60;54.80;;;;;;20774;6858;67928;-84
2022/01/22 07:11:13;;;;;;;9.35;7.47;;;4.40;55.00;;;;;;20769;6843;118431;-84
2022/01/22 07:13:39;;;;;;;9.17;7.30;;;4.30;55.30;;;;;;20795;6824;116989;-85
2022/01/22 07:16:05;;;;;;;7.80;7.00;;;4.10;56.00;;;;;;20786;6824;117128;-83
2022/01/22 07:18:31;;;;;;;10.47;7.53;;;4.20;55.60;;;;;;20752;6824;126855;-86
2022/01/22 07:20:56;;;;;;;10.60;8.17;;;4.10;55.70;;;;;;20785;6824;118462;-84
2022/01/22 07:26:03;;;;;;;9.40;8.47;;;4.30;56.30;;;;;;20685;6837;117320;-87
2022/01/22 07:28:29;;;;;;;11.83;10.70;;;4.40;55.70;;;;;;20514;6837;279318;-84
2022/01/22 07:30:55;;;;;;;11.67;9.53;;;4.60;55.80;;;;;;20708;6837;117422;-83
2022/01/22 07:33:20;;;;;;;11.65;10.35;;;4.70;55.30;;;;;;20534;6837;284693;-82
2022/01/22 07:35:49;;;;;;;11.85;10.60;;;4.80;55.30;;;;;;20542;6837;305833;-80
2022/01/22 07:38:16;;;;;;;10.20;9.10;;;5.10;54.10;;;;;;20763;6834;116834;-82
2022/01/22 07:40:41;;;;;;;9.93;8.60;;;5.10;54.10;;;;;;20601;6836;117864;-84
2022/01/22 07:43:07;;;;;;;12.15;11.00;;;4.90;54.40;;;;;;20546;6836;307538;-86
2022/01/22 07:45:32;;;;;;;11.27;9.13;;;5.00;54.90;;;;;;20750;6836;117683;-82
2022/01/22 07:47:59;;;;;;;12.43;11.12;;;4.90;54.50;;;;;;20535;6836;292208;-85
2022/01/22 07:50:25;;;;;;;13.38;11.30;;;5.30;53.80;;;;;;20512;6836;336566;-85
2022/01/22 07:52:51;;;;;;;14.10;12.17;;;5.30;54.10;;;;;;20533;6836;278024;-84
2022/01/22 07:55:19;;;;;;;13.23;11.50;;;5.50;53.60;;;;;;20540;6836;315590;-82
2022/01/22 07:57:44;;;;;;;12.47;9.97;;;5.70;53.20;;;;;;20654;6853;116651;-84
2022/01/22 08:00:10;;;;;;;13.10;11.23;;;5.60;53.00;;;;;;20478;6852;337167;-85
2022/01/22 08:02:35;;;;;;;11.47;10.27;;;5.60;53.40;;;;;;20629;6852;118083;-85
2022/01/22 08:05:01;;;;;;;11.27;9.37;;;5.50;53.40;;;;;;20687;6852;117688;-86
2022/01/22 08:07:29;;;;;;;12.02;10.77;;;5.30;54.40;;;;;;20493;6852;284724;-85
2022/01/22 08:09:57;;;;;;;14.15;11.95;;;5.50;54.00;;;;;;20451;6852;311490;-84
2022/01/22 08:12:21;;;;;;;11.33;9.97;;;5.50;53.90;;;;;;20637;6864;120653;-85
2022/01/22 08:14:47;;;;;;;10.03;8.93;;;5.50;53.70;;;;;;20652;6863;115246;-84
2022/01/22 08:17:12;;;;;;;12.95;9.85;;;5.30;53.90;;;;;;20697;6852;117266;-90
2022/01/22 08:19:38;;;;;;;14.63;12.68;;;5.10;54.90;;;;;;20490;6852;310794;-88
2022/01/22 08:22:04;;;;;;;12.73;10.00;;;5.10;54.30;;;;;;20698;6852;117495;-86
2022/01/22 08:24:30;;;;;;;14.03;12.57;;;5.10;54.30;;;;;;20466;6852;279060;-86
2022/01/22 08:29:41;;;;;;;14.30;11.27;;;5.50;54.00;;;;;;20738;6834;117972;-90
2022/01/22 08:32:23;;;;;;;13.77;12.30;;;5.50;53.80;;;;;;20456;6854;308971;-88
2022/01/22 08:37:17;;;;;;;12.27;10.97;;;5.50;54.00;;;;;;20720;6841;117912;-85
2022/01/22 08:39:43;;;;;;;15.37;10.67;;;5.30;54.30;;;;;;20735;6841;117606;-85
2022/01/22 08:42:09;;;;;;;16.65;14.23;;;5.10;54.60;;;;;;20522;6841;306621;-85
2022/01/22 08:44:34;;;;;;;15.10;11.35;;;5.30;55.00;;;;;;20696;6845;118057;-86
2022/01/22 08:47:00;;;;;;;12.80;10.73;;;5.30;54.50;;;;;;20685;6856;117693;-85
2022/01/22 08:49:28;;;;;;;14.13;12.00;;;5.10;54.60;;;;;;20763;6827;117337;-84
2022/01/22 08:51:52;;;;;;;15.20;11.37;;;5.00;54.90;;;;;;20700;6848;117871;-86
2022/01/22 08:54:17;;;;;;;17.73;14.52;;;4.90;55.10;;;;;;20488;6845;308870;-84
2022/01/22 08:56:43;;;;;;;15.20;11.75;;;5.10;55.40;;;;;;20680;6856;120046;-86
2022/01/22 08:59:11;;;;;;;16.67;13.80;;;5.20;55.00;;;;;;20469;6860;308683;-85
2022/01/22 09:01:39;;;;;;;16.90;12.00;;;5.30;54.90;;;;;;20732;6841;119401;-85
2022/01/22 09:04:05;;;;;;;18.33;11.57;;;5.20;54.60;;;;;;20720;6841;122614;-85
2022/01/22 09:06:31;;;;;;;16.53;14.00;;;5.20;54.60;;;;;;20499;6841;314553;-85
2022/01/22 09:09:07;;;;;;;15.13;13.48;;;5.30;54.80;;;;;;20524;6841;306943;-85
2022/01/22 09:11:22;;;;;;;15.33;11.97;;;5.60;54.20;;;;;;20674;6845;117931;-85
2022/01/22 09:13:47;;;;;;;17.37;14.23;;;5.60;53.70;;;;;;20466;6860;278874;-84
2022/01/22 09:16:13;;;;;;;15.47;13.60;;;5.70;54.10;;;;;;20461;6860;304634;-84
2022/01/22 09:18:39;;;;;;;16.80;13.45;;;5.90;53.80;;;;;;20441;6860;342124;-84
2022/01/22 09:21:04;;;;;;;15.57;13.20;;;6.10;53.00;;;;;;20463;6863;288041;-84
2022/01/22 09:23:30;;;;;;;17.65;13.75;;;6.30;52.40;;;;;;20453;6863;337207;-86
2022/01/22 09:25:57;;;;;;;16.13;11.43;;;6.40;52.10;;;;;;20662;6863;119256;-85
2022/01/22 09:28:22;;;;;;;14.13;11.00;;;6.20;52.00;;;;;;20643;6863;118825;-85
2022/01/22 09:30:51;;;;;;;11.67;10.47;;;5.60;53.20;;;;;;20661;6863;118249;-90
2022/01/22 09:33:17;;;;;;;13.37;10.47;;;5.60;53.20;;;;;;20662;6863;117038;-88
2022/01/22 09:35:42;;;;;;;12.13;10.00;;;5.40;53.60;;;;;;20668;6863;117564;-85
2022/01/22 09:38:09;;;;;;;15.65;13.55;;;5.20;53.90;;;;;;20464;6863;288413;-90
2022/01/22 09:40:35;;;;;;;16.17;13.77;;;5.30;54.90;;;;;;20445;6863;307583;-89
2022/01/22 09:43:02;;;;;;;15.18;13.68;;;5.60;54.70;;;;;;20455;6863;337247;-86
2022/01/22 09:45:27;;;;;;;17.45;13.60;;;5.90;54.20;;;;;;20443;6863;278998;-89
2022/01/22 09:47:53;;;;;;;16.58;14.13;;;6.10;53.50;;;;;;20444;6863;278145;-90
2022/01/22 09:50:18;;;;;;;17.95;13.93;;;6.30;53.10;;;;;;20427;6863;338111;-89
2022/01/22 09:52:44;;;;;;;16.05;14.05;;;6.40;53.10;;;;;;20451;6863;310480;-87
2022/01/22 09:55:09;;;;;;;16.63;14.53;;;6.50;53.00;;;;;;20445;6863;322252;-85
2022/01/22 09:57:36;;;;;;;18.97;14.90;;;6.60;52.70;;;;;;20424;6863;308575;-83
2022/01/22 10:00:01;;;;;;;15.50;11.70;;;6.60;52.40;;;;;;20660;6858;117698;-85
2022/01/22 10:02:26;;;;;;;18.48;13.82;;;6.40;52.40;;;;;;20436;6859;278218;-85
2022/01/22 10:04:52;;;;;;;13.93;12.23;;;6.30;53.30;;;;;;20675;6860;119111;-85
2022/01/22 10:07:21;;;;;;;14.80;11.55;;;6.20;53.40;;;;;;20654;6860;118344;-86
2022/01/22 10:10:03;;;;;;;13.87;11.73;;;5.90;53.80;;;;;;20661;6860;118313;-84
2022/01/22 10:12:29;;;;;;;18.37;14.23;;;5.70;54.30;;;;;;20487;6841;314456;-86
2022/01/22 10:15:03;;;;;;;16.20;14.50;;;5.80;54.80;;;;;;20529;6841;340831;-84
2022/01/22 10:17:39;;;;;;;14.53;12.23;;;6.10;54.50;;;;;;20695;6845;118098;-86
2022/01/22 10:20:05;;;;;;;15.43;11.57;;;6.00;54.10;;;;;;20688;6856;117790;-87
2022/01/22 10:22:43;;;;;;;13.83;11.60;;;5.80;54.60;;;;;;20590;6845;118516;-86
2022/01/22 10:25:11;;;;;;;15.97;11.00;;;5.60;55.00;;;;;;20721;6845;117870;-88
2022/01/22 10:27:38;;;;;;;15.90;14.18;;;5.50;55.40;;;;;;20492;6839;278249;-84
2022/01/22 10:30:03;;;;;;;18.13;14.80;;;5.70;56.10;;;;;;20477;6853;307885;-83
2022/01/22 10:35:03;;;;;;;14.20;11.50;;;6.00;55.00;;;;;;20733;6839;117501;-85
2022/01/22 10:37:28;;;;;;;18.17;13.90;;;5.90;55.30;;;;;;20403;6854;315484;-84
2022/01/22 10:39:54;;;;;;;12.57;11.25;;;6.00;55.70;;;;;;20741;6839;117911;-84
2022/01/22 10:42:19;;;;;;;16.37;14.55;;;6.00;55.30;;;;;;20424;6839;336769;-81
2022/01/22 10:44:48;;;;;;;15.82;14.18;;;6.20;55.20;;;;;;20528;6839;308087;-86
2022/01/22 10:47:13;;;;;;;15.87;13.90;;;6.50;54.80;;;;;;20524;6839;310494;-84
2022/01/22 10:49:39;;;;;;;13.77;12.13;;;6.70;53.90;;;;;;20674;6854;118002;-84
2022/01/22 10:52:07;;;;;;;13.20;11.77;;;6.60;53.60;;;;;;20747;6839;122821;-85
2022/01/22 10:54:30;;;;;;;17.37;13.98;;;6.30;53.90;;;;;;20512;6839;324869;-87
2022/01/22 10:57:17;;;;;;;13.17;11.83;;;6.30;54.50;;;;;;20733;6839;118009;-88
2022/01/22 10:59:46;;;;;;;16.50;14.33;;;6.30;54.50;;;;;;20461;6854;278546;-87
2022/01/22 11:02:12;;;;;;;14.65;13.05;;;6.50;54.90;;;;;;20521;6839;283286;-88
2022/01/22 11:04:37;;;;;;;15.35;13.48;;;6.70;54.70;;;;;;20500;6839;342216;-88
2022/01/22 11:07:06;;;;;;;13.80;12.37;;;6.90;54.20;;;;;;20698;6854;118109;-86
2022/01/22 11:09:32;;;;;;;15.97;13.83;;;6.90;54.40;;;;;;20525;6839;307226;-86
2022/01/22 11:11:58;;;;;;;15.63;13.90;;;7.00;55.30;;;;;;20528;6837;338038;-87
2022/01/22 11:14:24;;;;;;;12.40;11.10;;;7.20;55.10;;;;;;20727;6838;122196;-86
2022/01/22 11:16:51;;;;;;;15.48;11.98;;;6.90;54.90;;;;;;20724;6838;124242;-84
2022/01/22 11:19:19;;;;;;;16.07;14.03;;;6.80;54.80;;;;;;20522;6838;311807;-88
2022/01/22 11:21:46;;;;;;;13.40;11.93;;;6.90;54.90;;;;;;20690;6853;117404;-86
2022/01/22 11:24:13;;;;;;;13.48;12.07;;;6.80;54.90;;;;;;20735;6838;117769;-85
2022/01/22 11:26:39;;;;;;;14.20;11.73;;;6.70;55.30;;;;;;20708;6838;117586;-87
2022/01/22 11:29:04;;;;;;;16.95;14.27;;;6.50;55.70;;;;;;20524;6838;311353;-84
2022/01/22 11:31:30;;;;;;;15.40;13.80;;;6.60;56.10;;;;;;20522;6839;306022;-87
2022/01/22 11:33:55;;;;;;;15.57;12.57;;;6.90;55.60;;;;;;20730;6839;117287;-85
2022/01/22 11:36:27;;;;;;;16.00;14.38;;;6.90;55.00;;;;;;20456;6853;283483;-84
2022/01/22 11:39:00;;;;;;;16.70;14.90;;;7.00;56.00;;;;;;20509;6839;337583;-84
2022/01/22 11:41:25;;;;;;;12.93;11.70;;;7.30;54.70;;;;;;20688;6853;118354;-83
2022/01/22 11:44:05;;;;;;;13.17;11.90;;;7.20;54.40;;;;;;20709;6839;120329;-83
2022/01/22 11:46:32;;;;;;;16.50;13.87;;;7.00;54.80;;;;;;20372;6853;284953;-87
2022/01/22 11:49:09;;;;;;;17.52;14.85;;;7.10;55.20;;;;;;20466;6839;309692;-83
2022/01/22 11:51:34;;;;;;;16.43;14.23;;;7.30;55.10;;;;;;19427;7198;322481;-86
2022/01/22 11:54:00;;;;;;;14.65;11.27;;;7.50;53.90;;;;;;20148;6851;119219;-85
2022/01/22 11:56:32;;;;;;;12.63;11.43;;;7.40;53.70;;;;;;20654;6854;144695;-86
2022/01/22 11:58:58;;;;;;;13.60;12.30;;;7.10;54.90;;;;;;20681;6839;118060;-89
2022/01/22 12:01:50;;;;;;;15.17;12.90;;;6.80;54.80;;;;;;20480;6839;308236;-86
2022/01/22 12:04:14;;;;;;;14.80;13.38;;;6.90;54.80;;;;;;20438;6854;337328;-87
2022/01/22 12:06:37;;;;;;;16.30;14.73;;;7.20;54.60;;;;;;20487;6839;308035;-85
2022/01/22 12:09:10;;;;;;;12.47;11.33;;;7.40;54.00;;;;;;20729;6839;117339;-88
2022/01/22 12:16:48;;;;;;;13.90;11.83;;;7.10;55.10;;;;;;20742;6839;118960;-84
2022/01/22 12:19:38;;;;;;;16.65;15.15;;;7.00;54.90;;;;;;20518;6839;289844;-83
2022/01/22 12:22:02;;;;;;;16.87;15.13;;;7.10;55.00;;;;;;20518;6839;307817;-81
2022/01/22 12:24:32;;;;;;;14.13;12.73;;;7.40;54.50;;;;;;20603;6838;119515;-85
2022/01/22 12:27:01;;;;;;;20.47;18.37;;;7.30;54.20;;;;;;20415;6853;308937;-82
2022/01/22 12:29:34;;;;;;;15.50;13.80;;;7.30;54.50;;;;;;20732;6838;118168;-82
2022/01/22 12:32:08;;;;;;;17.27;14.17;;;7.20;54.40;;;;;;20391;6853;312921;-85
2022/01/22 12:34:50;;;;;;;15.07;13.57;;;7.20;54.30;;;;;;20710;6838;117630;-82
2022/01/22 12:37:15;;;;;;;13.30;12.00;;;7.10;54.30;;;;;;20644;6853;117297;-83
2022/01/22 12:39:44;;;;;;;17.30;15.35;;;6.90;54.70;;;;;;20497;6838;295182;-83
2022/01/22 12:42:12;;;;;;;14.63;12.48;;;6.90;54.80;;;;;;20724;6838;117849;-84
2022/01/22 12:44:35;;;;;;;14.93;11.47;;;6.90;54.80;;;;;;20662;6853;145308;-86
2022/01/22 12:46:58;;;;;;;18.90;15.27;;;6.70;55.60;;;;;;20724;6839;121073;-84
2022/01/22 12:49:24;;;;;;;18.50;16.60;;;6.50;55.30;;;;;;20526;6839;341274;-84
2022/01/22 12:51:53;;;;;;;19.60;15.67;;;6.60;55.70;;;;;;20733;6839;117800;-83
2022/01/22 12:54:29;;;;;;;19.05;16.50;;;6.60;55.20;;;;;;20461;6853;312481;-87
2022/01/22 12:57:02;;;;;;;16.03;14.30;;;6.80;55.50;;;;;;20729;6839;118706;-85
2022/01/22 12:59:29;;;;;;;19.17;14.67;;;6.80;55.20;;;;;;20673;6839;118022;-84
2022/01/22 13:01:53;;;;;;;16.27;14.53;;;6.60;55.20;;;;;;20736;6839;117402;-83
2022/01/22 13:04:19;;;;;;;19.08;17.08;;;6.40;55.50;;;;;;20448;6854;278652;-86
2022/01/22 13:06:46;;;;;;;14.57;12.90;;;6.60;56.00;;;;;;20742;6839;121990;-83
2022/01/22 13:09:11;;;;;;;19.55;15.73;;;6.60;55.60;;;;;;20815;6839;116932;-81
2022/01/22 13:11:44;;;;;;;18.83;15.33;;;6.50;55.70;;;;;;20771;6854;116624;-84
2022/01/22 13:14:01;;;;;;;18.60;14.52;;;6.40;56.00;;;;;;20793;6839;116411;-83
2022/01/22 13:16:26;;;;;;;22.20;19.90;;;6.30;56.10;;;;;;20571;6839;313193;-83
2022/01/22 13:18:56;;;;;;;20.65;16.75;;;6.40;56.20;;;;;;20509;6854;307677;-85
2022/01/22 13:21:18;;;;;;;20.92;15.43;;;6.80;55.80;;;;;;20728;6839;118165;-84
2022/01/22 13:23:43;;;;;;;15.10;13.50;;;6.90;55.30;;;;;;20723;6839;117371;-87
2022/01/22 13:26:09;;;;;;;18.40;16.45;;;6.70;55.40;;;;;;20527;6839;308108;-84
2022/01/22 13:28:36;;;;;;;21.12;16.92;;;6.80;55.30;;;;;;20727;6839;130817;-83
2022/01/22 13:31:11;;;;;;;25.12;19.27;;;6.60;55.20;;;;;;20735;6839;118000;-83
2022/01/22 13:36:39;;;;;;;20.87;11.73;;;6.50;55.20;;;;;;20778;6837;117295;-84
2022/01/22 13:49:55;;;;;;;19.57;16.17;;;6.40;55.50;;;;;;20738;6838;118201;-85
2022/01/22 13:52:25;;;;;;;19.50;13.70;;;6.30;55.80;;;;;;20713;6838;122063;-86
2022/01/22 13:54:49;;;;;;;13.20;11.27;;;6.20;55.90;;;;;;20727;6839;118220;-84
2022/01/22 13:57:15;;;;;;;15.85;14.15;;;6.10;56.00;;;;;;20490;6853;278599;-86
2022/01/22 13:59:41;;;;;;;17.23;11.93;;;6.30;56.20;;;;;;20736;6839;117691;-85
2022/01/22 14:04:51;;;;;;;11.82;10.70;;;6.50;55.30;;;;;;20483;6853;338522;-85
2022/01/22 14:07:32;;;;;;;12.07;10.82;;;6.90;54.60;;;;;;20516;6839;336836;-84
2022/01/22 14:09:56;;;;;;;10.67;9.57;;;6.90;54.10;;;;;;20746;6839;117832;-84
2022/01/22 14:12:26;;;;;;;18.05;14.35;;;6.90;54.20;;;;;;20434;6854;312530;-85
2022/01/22 14:15:04;;;;;;;12.73;11.23;;;7.00;54.10;;;;;;20655;6851;119121;-90
2022/01/22 14:17:37;;;;;;;15.27;13.70;;;6.90;53.80;;;;;;20484;6851;336283;-87
2022/01/22 14:20:08;;;;;;;10.73;9.50;;;7.10;53.90;;;;;;20678;6851;117532;-88
2022/01/22 14:22:54;;;;;;;9.73;8.77;;;6.80;54.00;;;;;;20646;6851;117841;-88
2022/01/22 14:25:20;;;;;;;13.07;10.63;;;6.80;54.00;;;;;;20621;6851;117391;-85
2022/01/22 14:27:55;;;;;;;11.47;10.47;;;6.60;54.30;;;;;;20482;6851;278549;-85
2022/01/22 14:30:41;;;;;;;15.13;13.07;;;6.80;54.30;;;;;;20430;6851;342678;-86
2022/01/22 14:33:07;;;;;;;10.83;8.97;;;7.10;54.00;;;;;;20683;6851;117388;-83
2022/01/22 14:35:32;;;;;;;11.10;8.83;;;7.10;53.60;;;;;;20689;6854;117479;-83
2022/01/22 14:38:19;;;;;;;14.35;9.52;;;6.90;53.80;;;;;;20734;6839;117507;-85
2022/01/22 14:44:01;;;;;;;12.00;10.88;;;7.30;53.30;;;;;;20539;6839;278066;-83